createdAt,value
2023-01-18T00:00:45.995Z,9.70
2023-01-18T00:06:48.075Z,9.43
2023-01-18T00:12:50.484Z,9.38
2023-01-18T00:18:55.044Z,9.02
2023-01-18T00:24:56.926Z,9.07
2023-01-18T00:30:58.871Z,8.80
2023-01-18T00:37:00.936Z,8.70
2023-01-18T00:43:21.421Z,8.48
2023-01-18T00:49:23.721Z,8.75
2023-01-18T00:55:26.338Z,8.35
2023-01-18T01:01:28.314Z,8.13
2023-01-18T01:07:30.159Z,8.73
2023-01-18T01:13:50.825Z,11.48
2023-01-18T01:20:11.436Z,11.60
2023-01-18T01:26:13.330Z,11.48
2023-01-18T01:32:15.134Z,11.15
2023-01-18T01:38:16.974Z,11.02
2023-01-18T01:44:20.027Z,10.95
2023-01-18T01:50:25.915Z,12.00
2023-01-18T01:56:29.467Z,10.43
2023-01-18T02:02:34.085Z,11.45
2023-01-18T02:08:36.136Z,11.75
2023-01-18T02:14:38.016Z,11.35
2023-01-18T02:20:49.006Z,12.73
2023-01-18T02:26:53.890Z,9.80
2023-01-18T02:33:07.517Z,9.90
2023-01-18T02:39:38.456Z,10.23
2023-01-18T02:46:03.489Z,10.68
2023-01-18T02:52:07.792Z,10.48
2023-01-18T02:58:28.493Z,9.38
2023-01-18T03:04:54.761Z,10.07
2023-01-18T03:11:01.583Z,10.40
2023-01-18T03:17:29.785Z,10.18
2023-01-18T03:23:40.001Z,10.68
2023-01-18T03:30:01.069Z,10.57
2023-01-18T03:36:05.795Z,10.02
2023-01-18T03:48:17.374Z,10.65
2023-01-18T03:54:25.178Z,11.80
2023-01-18T04:00:27.044Z,11.38
2023-01-18T04:06:31.152Z,10.95
2023-01-18T04:12:34.460Z,10.52
2023-01-18T04:18:36.343Z,10.52
2023-01-18T04:24:38.147Z,13.13
2023-01-18T04:30:40.124Z,12.50
2023-01-18T04:36:41.962Z,11.73
2023-01-18T04:42:43.779Z,12.50
2023-01-18T04:48:50.767Z,10.60
2023-01-18T04:54:52.764Z,11.68
2023-01-18T05:00:54.584Z,12.15
2023-01-18T05:06:57.516Z,11.77
2023-01-18T05:12:59.829Z,11.60
2023-01-18T05:19:02.060Z,12.52
2023-01-18T05:25:05.535Z,12.48
2023-01-18T05:31:07.575Z,11.80
2023-01-18T05:37:09.981Z,11.93
2023-01-18T05:43:13.037Z,11.65
2023-01-18T05:49:14.828Z,12.02
2023-01-18T05:55:16.849Z,11.75
2023-01-18T06:01:18.839Z,11.90
2023-01-18T06:07:20.989Z,12.90
2023-01-18T06:13:23.749Z,12.25
2023-01-18T06:19:25.640Z,11.98
2023-01-18T06:25:27.714Z,13.82
2023-01-18T06:31:29.606Z,13.93
2023-01-18T06:37:31.383Z,12.93
2023-01-18T06:43:33.388Z,13.02
2023-01-18T06:49:35.187Z,12.27
2023-01-18T06:55:36.917Z,12.15
2023-01-18T07:01:38.825Z,13.30
2023-01-18T07:07:40.751Z,13.27
2023-01-18T07:13:43.804Z,13.05
2023-01-18T07:19:45.724Z,12.73
2023-01-18T07:25:47.486Z,13.32
2023-01-18T07:31:49.284Z,13.43
2023-01-18T07:37:53.415Z,14.23
2023-01-18T07:43:55.892Z,15.40
2023-01-18T07:49:57.765Z,12.98
2023-01-18T07:56:04.575Z,13.52
2023-01-18T08:02:08.765Z,13.23
2023-01-18T08:08:12.050Z,11.85
2023-01-18T08:14:13.846Z,10.02
2023-01-18T08:20:15.892Z,13.98
2023-01-18T08:26:17.781Z,10.68
2023-01-18T08:32:19.584Z,12.98
2023-01-18T08:38:21.949Z,13.30
2023-01-18T08:44:24.190Z,11.43
2023-01-18T08:50:26.443Z,12.18
2023-01-18T08:56:28.382Z,12.32
2023-01-18T09:02:30.245Z,11.07
2023-01-18T09:08:32.112Z,11.77
2023-01-18T09:14:33.896Z,12.02
2023-01-18T09:20:36.436Z,13.65
2023-01-18T09:26:38.390Z,12.63
2023-01-18T09:32:42.270Z,13.60
2023-01-18T09:38:46.041Z,13.80
2023-01-18T09:44:58.652Z,14.63
2023-01-18T09:51:05.504Z,14.52
2023-01-18T09:57:34.259Z,14.70
2023-01-18T10:03:53.589Z,14.05
2023-01-18T10:09:58.284Z,14.50
2023-01-18T10:22:19.342Z,13.43
2023-01-18T10:28:45.268Z,13.98
2023-01-18T10:34:51.531Z,13.73
2023-01-18T10:41:02.932Z,13.13
2023-01-18T10:47:04.784Z,14.38
2023-01-18T10:53:27.250Z,14.77
2023-01-18T10:59:39.827Z,14.35
2023-01-18T11:05:45.507Z,13.25
2023-01-18T11:12:22.775Z,13.27
2023-01-18T11:18:24.573Z,13.10
2023-01-18T11:24:33.326Z,12.43
2023-01-18T11:30:36.219Z,13.38
2023-01-18T11:36:43.831Z,13.15
2023-01-18T11:42:46.809Z,13.35
2023-01-18T11:48:59.608Z,12.55
2023-01-18T11:55:11.575Z,11.73
2023-01-18T12:01:31.840Z,11.43
2023-01-18T12:07:54.746Z,10.40
2023-01-18T12:14:24.701Z,10.18
2023-01-18T12:20:36.612Z,10.85
2023-01-18T12:26:58.214Z,10.05
2023-01-18T12:33:14.491Z,10.02
2023-01-18T12:39:33.291Z,9.32
2023-01-18T12:45:46.706Z,8.63
2023-01-18T12:51:53.752Z,8.77
2023-01-18T12:57:59.168Z,9.45
2023-01-18T13:04:08.281Z,8.63
2023-01-18T13:10:21.592Z,8.23
2023-01-18T13:16:33.041Z,8.77
2023-01-18T13:23:00.217Z,9.27
2023-01-18T13:29:29.957Z,8.63
2023-01-18T13:35:33.536Z,9.40
2023-01-18T13:41:35.967Z,8.57
2023-01-18T13:47:45.656Z,8.07
2023-01-18T13:53:49.604Z,8.50
2023-01-18T13:59:52.357Z,7.97
2023-01-18T14:05:59.593Z,7.75
2023-01-18T14:12:01.724Z,8.60
2023-01-18T14:18:05.405Z,7.82
2023-01-18T14:24:10.271Z,7.95
2023-01-18T14:30:19.204Z,8.23
2023-01-18T14:36:28.889Z,8.77
2023-01-18T14:42:34.863Z,8.10
2023-01-18T14:48:47.734Z,8.90
2023-01-18T14:54:54.665Z,8.73
2023-01-18T15:00:56.570Z,9.10
2023-01-18T15:07:06.303Z,8.88
2023-01-18T15:13:08.172Z,9.45
2023-01-18T15:19:17.380Z,8.80
2023-01-18T15:25:26.266Z,9.55
2023-01-18T15:31:31.183Z,9.80
2023-01-18T15:37:40.063Z,9.80
2023-01-18T15:43:43.725Z,9.80
2023-01-18T15:49:49.294Z,9.70
2023-01-18T15:55:54.340Z,10.02
2023-01-18T16:02:08.476Z,10.23
2023-01-18T16:08:20.918Z,9.73
2023-01-18T16:14:28.950Z,11.52
2023-01-18T16:20:33.405Z,10.13
2023-01-18T16:26:35.264Z,10.95
2023-01-18T16:32:38.442Z,10.93
2023-01-18T16:38:41.149Z,10.02
2023-01-18T16:44:45.520Z,10.05
2023-01-18T16:50:47.948Z,10.00
2023-01-18T16:56:50.387Z,10.30
2023-01-18T17:02:53.462Z,9.50
2023-01-18T17:08:55.552Z,9.52
2023-01-18T17:14:57.536Z,9.55
2023-01-18T17:20:59.557Z,9.57
2023-01-18T17:27:01.594Z,10.57
2023-01-18T17:33:03.680Z,9.52
2023-01-18T17:39:06.382Z,10.55
2023-01-18T17:45:10.058Z,10.18
2023-01-18T17:51:13.763Z,10.00
2023-01-18T17:57:15.910Z,10.05
2023-01-18T18:03:17.883Z,9.85
2023-01-18T18:09:19.710Z,8.98
2023-01-18T18:15:22.378Z,9.57
2023-01-18T18:21:27.250Z,10.63
2023-01-18T18:27:44.431Z,9.43
2023-01-18T18:33:47.324Z,9.60
2023-01-18T18:39:49.388Z,9.60
2023-01-18T18:45:51.575Z,8.48
2023-01-18T18:51:53.530Z,9.13
2023-01-18T18:57:55.323Z,9.05
2023-01-18T19:03:59.021Z,8.98
2023-01-18T19:10:00.968Z,8.80
2023-01-18T19:16:02.750Z,8.02
2023-01-18T19:22:04.686Z,7.95
2023-01-18T19:28:07.100Z,8.30
2023-01-18T19:34:09.051Z,8.55
2023-01-18T19:40:12.129Z,8.00
2023-01-18T19:46:15.325Z,7.88
2023-01-18T19:52:17.344Z,7.25
2023-01-18T19:58:19.217Z,7.70
2023-01-18T20:04:21.144Z,7.53
2023-01-18T20:10:22.910Z,7.00
2023-01-18T20:16:24.727Z,7.03
2023-01-18T20:22:26.698Z,7.75
2023-01-18T20:28:28.673Z,8.13
2023-01-18T20:34:31.048Z,7.53
2023-01-18T20:40:33.774Z,7.68
2023-01-18T20:46:36.043Z,7.15
2023-01-18T20:52:38.056Z,8.32
2023-01-18T20:58:39.801Z,7.97
2023-01-18T21:04:41.591Z,7.45
2023-01-18T21:10:43.428Z,8.13
2023-01-18T21:16:45.415Z,7.85
2023-01-18T21:22:47.370Z,8.32
2023-01-18T21:28:49.284Z,7.38
2023-01-18T21:34:52.209Z,7.30
2023-01-18T21:40:54.171Z,7.43
2023-01-18T21:46:56.210Z,7.75
2023-01-18T21:53:16.544Z,6.72
2023-01-18T21:59:18.342Z,6.75
2023-01-18T22:05:20.215Z,6.60
2023-01-18T22:11:22.159Z,6.93
2023-01-18T22:17:24.104Z,6.32
2023-01-18T22:23:25.962Z,6.38
2023-01-18T22:29:27.726Z,5.72
2023-01-18T22:35:31.363Z,6.63
2023-01-18T22:41:33.379Z,5.45
2023-01-18T22:47:35.302Z,5.85
2023-01-18T22:53:37.402Z,5.20
2023-01-18T22:59:39.771Z,5.70
2023-01-18T23:05:42.061Z,5.88
2023-01-18T23:11:44.973Z,6.22
2023-01-18T23:17:46.997Z,5.60
2023-01-18T23:23:49.315Z,5.15
2023-01-18T23:29:59.961Z,5.78
2023-01-18T23:36:01.888Z,6.03
2023-01-18T23:42:22.510Z,6.30
2023-01-18T23:48:42.580Z,5.88
2023-01-18T23:54:44.503Z,7.03
